sensor_id;sensor_type;location;lat;lon;timestamp;P1;durP1;ratioP1;P2;durP2;ratioP2
76320;SDS011;65132;52.088;5.402;2022-12-31T00:01:35;4.20;;;2.60;;
76320;SDS011;65132;52.088;5.402;2022-12-31T00:04:01;3.95;;;1.83;;
76320;SDS011;65132;52.088;5.402;2022-12-31T00:06:29;4.13;;;2.22;;
76320;SDS011;65132;52.088;5.402;2022-12-31T00:08:59;3.83;;;2.10;;
76320;SDS011;65132;52.088;5.402;2022-12-31T00:11:27;4.32;;;2.28;;
76320;SDS011;65132;52.088;5.402;2022-12-31T00:13:55;5.25;;;2.67;;
76320;SDS011;65132;52.088;5.402;2022-12-31T00:16:22;5.70;;;3.47;;
76320;SDS011;65132;52.088;5.402;2022-12-31T00:19:00;5.13;;;2.63;;
76320;SDS011;65132;52.088;5.402;2022-12-31T00:21:27;6.82;;;3.20;;
76320;SDS011;65132;52.088;5.402;2022-12-31T00:23:56;6.35;;;3.55;;
76320;SDS011;65132;52.088;5.402;2022-12-31T00:26:24;6.70;;;4.13;;
76320;SDS011;65132;52.088;5.402;2022-12-31T00:28:53;5.60;;;3.20;;
76320;SDS011;65132;52.088;5.402;2022-12-31T00:31:22;7.38;;;2.72;;
76320;SDS011;65132;52.088;5.402;2022-12-31T00:33:51;4.25;;;2.17;;
76320;SDS011;65132;52.088;5.402;2022-12-31T00:36:19;3.63;;;1.77;;
76320;SDS011;65132;52.088;5.402;2022-12-31T00:38:47;4.75;;;1.90;;
76320;SDS011;65132;52.088;5.402;2022-12-31T00:41:15;4.28;;;1.73;;
76320;SDS011;65132;52.088;5.402;2022-12-31T00:43:43;3.90;;;2.13;;
76320;SDS011;65132;52.088;5.402;2022-12-31T00:46:10;2.83;;;1.33;;
76320;SDS011;65132;52.088;5.402;2022-12-31T00:48:38;3.78;;;1.55;;
76320;SDS011;65132;52.088;5.402;2022-12-31T00:51:05;4.10;;;1.70;;
76320;SDS011;65132;52.088;5.402;2022-12-31T00:53:34;3.25;;;1.50;;
76320;SDS011;65132;52.088;5.402;2022-12-31T00:56:04;2.95;;;1.38;;
76320;SDS011;65132;52.088;5.402;2022-12-31T00:58:33;4.07;;;1.70;;
76320;SDS011;65132;52.088;5.402;2022-12-31T01:01:10;3.72;;;2.10;;
76320;SDS011;65132;52.088;5.402;2022-12-31T01:03:39;5.70;;;1.80;;
76320;SDS011;65132;52.088;5.402;2022-12-31T01:06:06;2.67;;;1.20;;
76320;SDS011;65132;52.088;5.402;2022-12-31T01:08:33;3.03;;;1.45;;
76320;SDS011;65132;52.088;5.402;2022-12-31T01:11:00;2.97;;;1.67;;
76320;SDS011;65132;52.088;5.402;2022-12-31T01:13:27;3.22;;;1.80;;
76320;SDS011;65132;52.088;5.402;2022-12-31T01:15:53;4.03;;;1.90;;
76320;SDS011;65132;52.088;5.402;2022-12-31T01:18:20;4.75;;;2.22;;
76320;SDS011;65132;52.088;5.402;2022-12-31T01:20:46;3.88;;;2.00;;
76320;SDS011;65132;52.088;5.402;2022-12-31T01:23:13;4.20;;;2.00;;
76320;SDS011;65132;52.088;5.402;2022-12-31T01:25:39;5.85;;;2.70;;
76320;SDS011;65132;52.088;5.402;2022-12-31T01:28:08;4.28;;;2.40;;
76320;SDS011;65132;52.088;5.402;2022-12-31T01:30:38;6.10;;;2.90;;
76320;SDS011;65132;52.088;5.402;2022-12-31T01:33:05;4.85;;;2.25;;
76320;SDS011;65132;52.088;5.402;2022-12-31T01:35:33;3.90;;;2.58;;
76320;SDS011;65132;52.088;5.402;2022-12-31T01:38:00;6.15;;;2.88;;
76320;SDS011;65132;52.088;5.402;2022-12-31T01:40:26;5.45;;;2.65;;
76320;SDS011;65132;52.088;5.402;2022-12-31T01:42:56;5.25;;;2.72;;
76320;SDS011;65132;52.088;5.402;2022-12-31T01:45:23;6.03;;;3.00;;
76320;SDS011;65132;52.088;5.402;2022-12-31T01:47:54;6.40;;;2.70;;
76320;SDS011;65132;52.088;5.402;2022-12-31T01:50:26;7.18;;;2.90;;
76320;SDS011;65132;52.088;5.402;2022-12-31T01:52:57;5.65;;;2.90;;
76320;SDS011;65132;52.088;5.402;2022-12-31T01:55:37;5.10;;;2.65;;
76320;SDS011;65132;52.088;5.402;2022-12-31T01:58:11;5.60;;;2.42;;
76320;SDS011;65132;52.088;5.402;2022-12-31T02:00:42;5.97;;;2.45;;
76320;SDS011;65132;52.088;5.402;2022-12-31T02:03:09;4.15;;;1.83;;
76320;SDS011;65132;52.088;5.402;2022-12-31T02:05:48;3.70;;;1.83;;
76320;SDS011;65132;52.088;5.402;2022-12-31T02:08:21;6.40;;;1.88;;
76320;SDS011;65132;52.088;5.402;2022-12-31T02:10:47;3.50;;;1.42;;
76320;SDS011;65132;52.088;5.402;2022-12-31T02:13:13;5.45;;;1.60;;
76320;SDS011;65132;52.088;5.402;2022-12-31T02:18:26;5.13;;;1.83;;
76320;SDS011;65132;52.088;5.402;2022-12-31T02:30:14;6.90;;;1.52;;
76320;SDS011;65132;52.088;5.402;2022-12-31T02:35:00;5.57;;;1.88;;
76320;SDS011;65132;52.088;5.402;2022-12-31T02:37:32;3.83;;;1.10;;
76320;SDS011;65132;52.088;5.402;2022-12-31T02:40:01;4.55;;;0.98;;
76320;SDS011;65132;52.088;5.402;2022-12-31T02:42:32;3.45;;;0.65;;
76320;SDS011;65132;52.088;5.402;2022-12-31T02:44:58;4.07;;;0.63;;
76320;SDS011;65132;52.088;5.402;2022-12-31T02:47:28;3.75;;;0.70;;
76320;SDS011;65132;52.088;5.402;2022-12-31T02:55:53;2.40;;;0.68;;
76320;SDS011;65132;52.088;5.402;2022-12-31T03:00:58;3.85;;;0.60;;
76320;SDS011;65132;52.088;5.402;2022-12-31T03:03:26;2.58;;;0.60;;
76320;SDS011;65132;52.088;5.402;2022-12-31T03:05:53;2.25;;;0.50;;
76320;SDS011;65132;52.088;5.402;2022-12-31T03:08:22;2.17;;;0.25;;
76320;SDS011;65132;52.088;5.402;2022-12-31T03:10:50;3.63;;;0.60;;
76320;SDS011;65132;52.088;5.402;2022-12-31T03:13:17;3.17;;;0.70;;
76320;SDS011;65132;52.088;5.402;2022-12-31T03:15:43;2.85;;;0.70;;
76320;SDS011;65132;52.088;5.402;2022-12-31T03:18:11;4.53;;;0.80;;
76320;SDS011;65132;52.088;5.402;2022-12-31T03:23:16;3.45;;;0.65;;
76320;SDS011;65132;52.088;5.402;2022-12-31T03:25:44;4.10;;;0.90;;
76320;SDS011;65132;52.088;5.402;2022-12-31T03:28:14;2.63;;;0.80;;
76320;SDS011;65132;52.088;5.402;2022-12-31T03:30:47;5.25;;;1.05;;
76320;SDS011;65132;52.088;5.402;2022-12-31T03:33:15;2.88;;;0.70;;
76320;SDS011;65132;52.088;5.402;2022-12-31T03:35:42;2.90;;;0.52;;
76320;SDS011;65132;52.088;5.402;2022-12-31T03:38:10;3.60;;;0.90;;
76320;SDS011;65132;52.088;5.402;2022-12-31T03:40:41;4.20;;;0.90;;
76320;SDS011;65132;52.088;5.402;2022-12-31T03:43:09;3.97;;;0.80;;
76320;SDS011;65132;52.088;5.402;2022-12-31T03:45:36;4.28;;;1.00;;
76320;SDS011;65132;52.088;5.402;2022-12-31T03:48:03;4.70;;;0.65;;
76320;SDS011;65132;52.088;5.402;2022-12-31T03:50:30;2.88;;;0.90;;
76320;SDS011;65132;52.088;5.402;2022-12-31T03:52:57;3.22;;;1.00;;
76320;SDS011;65132;52.088;5.402;2022-12-31T03:55:24;5.05;;;1.25;;
76320;SDS011;65132;52.088;5.402;2022-12-31T03:57:51;4.47;;;0.90;;
76320;SDS011;65132;52.088;5.402;2022-12-31T04:00:18;5.22;;;1.40;;
76320;SDS011;65132;52.088;5.402;2022-12-31T04:02:46;4.07;;;1.40;;
76320;SDS011;65132;52.088;5.402;2022-12-31T04:05:14;4.65;;;0.90;;
76320;SDS011;65132;52.088;5.402;2022-12-31T04:07:42;2.78;;;0.80;;
76320;SDS011;65132;52.088;5.402;2022-12-31T04:10:09;2.33;;;0.77;;
76320;SDS011;65132;52.088;5.402;2022-12-31T04:12:38;2.70;;;0.80;;
76320;SDS011;65132;52.088;5.402;2022-12-31T04:15:05;2.47;;;0.95;;
76320;SDS011;65132;52.088;5.402;2022-12-31T04:17:32;2.17;;;0.57;;
76320;SDS011;65132;52.088;5.402;2022-12-31T04:19:59;4.65;;;1.13;;
76320;SDS011;65132;52.088;5.402;2022-12-31T04:22:25;3.03;;;0.70;;
76320;SDS011;65132;52.088;5.402;2022-12-31T04:24:52;3.13;;;0.90;;
76320;SDS011;65132;52.088;5.402;2022-12-31T04:27:18;4.20;;;0.88;;
76320;SDS011;65132;52.088;5.402;2022-12-31T04:29:44;3.20;;;1.20;;
76320;SDS011;65132;52.088;5.402;2022-12-31T04:32:11;4.22;;;1.80;;
76320;SDS011;65132;52.088;5.402;2022-12-31T04:34:37;4.00;;;1.33;;
76320;SDS011;65132;52.088;5.402;2022-12-31T04:37:04;6.28;;;2.10;;
76320;SDS011;65132;52.088;5.402;2022-12-31T04:39:30;5.88;;;2.42;;
76320;SDS011;65132;52.088;5.402;2022-12-31T04:41:57;6.40;;;2.10;;
76320;SDS011;65132;52.088;5.402;2022-12-31T04:44:23;5.05;;;1.67;;
76320;SDS011;65132;52.088;5.402;2022-12-31T04:46:50;3.85;;;1.90;;
76320;SDS011;65132;52.088;5.402;2022-12-31T04:49:16;6.25;;;2.38;;
76320;SDS011;65132;52.088;5.402;2022-12-31T04:51:43;5.20;;;2.40;;
76320;SDS011;65132;52.088;5.402;2022-12-31T04:54:09;4.60;;;2.40;;
76320;SDS011;65132;52.088;5.402;2022-12-31T04:56:36;4.85;;;2.10;;
76320;SDS011;65132;52.088;5.402;2022-12-31T04:59:03;4.40;;;1.88;;
76320;SDS011;65132;52.088;5.402;2022-12-31T05:01:30;4.35;;;2.20;;
76320;SDS011;65132;52.088;5.402;2022-12-31T05:03:56;4.32;;;2.17;;
76320;SDS011;65132;52.088;5.402;2022-12-31T05:06:23;5.10;;;2.55;;
76320;SDS011;65132;52.088;5.402;2022-12-31T05:08:49;6.43;;;2.90;;
76320;SDS011;65132;52.088;5.402;2022-12-31T05:11:16;5.53;;;2.63;;
76320;SDS011;65132;52.088;5.402;2022-12-31T05:13:43;6.25;;;2.78;;
76320;SDS011;65132;52.088;5.402;2022-12-31T05:16:09;5.90;;;2.47;;
76320;SDS011;65132;52.088;5.402;2022-12-31T05:18:36;4.82;;;2.08;;
76320;SDS011;65132;52.088;5.402;2022-12-31T05:21:03;5.47;;;2.33;;
76320;SDS011;65132;52.088;5.402;2022-12-31T05:23:29;5.00;;;2.38;;
76320;SDS011;65132;52.088;5.402;2022-12-31T05:25:56;5.45;;;1.75;;
76320;SDS011;65132;52.088;5.402;2022-12-31T05:28:22;4.43;;;2.30;;
76320;SDS011;65132;52.088;5.402;2022-12-31T05:30:50;4.07;;;1.63;;
76320;SDS011;65132;52.088;5.402;2022-12-31T05:33:17;3.88;;;2.00;;
76320;SDS011;65132;52.088;5.402;2022-12-31T05:35:44;4.57;;;2.30;;
76320;SDS011;65132;52.088;5.402;2022-12-31T05:38:10;5.15;;;3.15;;
76320;SDS011;65132;52.088;5.402;2022-12-31T05:40:37;5.85;;;2.30;;
76320;SDS011;65132;52.088;5.402;2022-12-31T05:43:03;4.85;;;1.83;;
76320;SDS011;65132;52.088;5.402;2022-12-31T05:45:30;3.55;;;1.58;;
76320;SDS011;65132;52.088;5.402;2022-12-31T05:47:57;4.15;;;1.77;;
76320;SDS011;65132;52.088;5.402;2022-12-31T05:50:23;4.53;;;1.80;;
76320;SDS011;65132;52.088;5.402;2022-12-31T05:52:50;3.40;;;1.48;;
76320;SDS011;65132;52.088;5.402;2022-12-31T05:55:16;4.18;;;1.50;;
76320;SDS011;65132;52.088;5.402;2022-12-31T05:57:43;3.80;;;1.80;;
76320;SDS011;65132;52.088;5.402;2022-12-31T06:00:09;3.08;;;1.35;;
76320;SDS011;65132;52.088;5.402;2022-12-31T06:02:37;3.75;;;1.52;;
76320;SDS011;65132;52.088;5.402;2022-12-31T06:05:03;2.97;;;1.20;;
76320;SDS011;65132;52.088;5.402;2022-12-31T06:07:30;2.88;;;1.45;;
76320;SDS011;65132;52.088;5.402;2022-12-31T06:09:57;3.58;;;1.50;;
76320;SDS011;65132;52.088;5.402;2022-12-31T06:12:23;2.63;;;0.93;;
76320;SDS011;65132;52.088;5.402;2022-12-31T06:14:50;3.20;;;1.48;;
76320;SDS011;65132;52.088;5.402;2022-12-31T06:17:17;3.92;;;1.85;;
76320;SDS011;65132;52.088;5.402;2022-12-31T06:19:43;3.40;;;1.48;;
76320;SDS011;65132;52.088;5.402;2022-12-31T06:22:10;3.92;;;1.85;;
76320;SDS011;65132;52.088;5.402;2022-12-31T06:24:36;4.68;;;2.30;;
76320;SDS011;65132;52.088;5.402;2022-12-31T06:27:02;5.60;;;2.15;;
76320;SDS011;65132;52.088;5.402;2022-12-31T06:29:29;4.95;;;1.85;;
76320;SDS011;65132;52.088;5.402;2022-12-31T06:31:56;4.82;;;2.72;;
76320;SDS011;65132;52.088;5.402;2022-12-31T06:34:23;4.80;;;2.53;;
76320;SDS011;65132;52.088;5.402;2022-12-31T06:36:49;5.35;;;2.63;;
76320;SDS011;65132;52.088;5.402;2022-12-31T06:39:16;5.13;;;1.90;;
76320;SDS011;65132;52.088;5.402;2022-12-31T06:41:42;6.35;;;3.13;;
76320;SDS011;65132;52.088;5.402;2022-12-31T06:44:08;7.07;;;3.60;;
76320;SDS011;65132;52.088;5.402;2022-12-31T06:46:35;6.88;;;3.22;;
76320;SDS011;65132;52.088;5.402;2022-12-31T06:49:01;7.80;;;4.45;;
76320;SDS011;65132;52.088;5.402;2022-12-31T06:51:28;7.43;;;3.33;;
76320;SDS011;65132;52.088;5.402;2022-12-31T06:53:54;5.78;;;2.80;;
76320;SDS011;65132;52.088;5.402;2022-12-31T06:56:22;7.57;;;3.50;;
76320;SDS011;65132;52.088;5.402;2022-12-31T06:58:58;5.20;;;2.40;;
76320;SDS011;65132;52.088;5.402;2022-12-31T07:09:56;4.57;;;2.08;;
76320;SDS011;65132;52.088;5.402;2022-12-31T07:12:36;4.57;;;1.13;;
76320;SDS011;65132;52.088;5.402;2022-12-31T07:15:31;2.90;;;1.02;;
76320;SDS011;65132;52.088;5.402;2022-12-31T07:20:45;2.78;;;1.02;;
76320;SDS011;65132;52.088;5.402;2022-12-31T07:23:12;2.15;;;0.73;;
76320;SDS011;65132;52.088;5.402;2022-12-31T07:25:40;1.92;;;0.63;;
76320;SDS011;65132;52.088;5.402;2022-12-31T07:28:19;2.55;;;0.60;;
76320;SDS011;65132;52.088;5.402;2022-12-31T07:31:32;2.75;;;0.80;;
76320;SDS011;65132;52.088;5.402;2022-12-31T07:42:24;0.93;;;0.22;;
76320;SDS011;65132;52.088;5.402;2022-12-31T07:47:39;1.80;;;0.57;;
76320;SDS011;65132;52.088;5.402;2022-12-31T07:50:12;2.40;;;0.68;;
76320;SDS011;65132;52.088;5.402;2022-12-31T07:52:40;1.88;;;0.80;;
76320;SDS011;65132;52.088;5.402;2022-12-31T07:55:07;3.70;;;1.30;;
76320;SDS011;65132;52.088;5.402;2022-12-31T07:57:35;3.30;;;1.20;;
76320;SDS011;65132;52.088;5.402;2022-12-31T08:00:11;3.25;;;1.50;;
76320;SDS011;65132;52.088;5.402;2022-12-31T08:02:52;3.70;;;1.95;;
76320;SDS011;65132;52.088;5.402;2022-12-31T08:11:00;3.58;;;1.98;;
76320;SDS011;65132;52.088;5.402;2022-12-31T08:13:35;2.95;;;1.48;;
76320;SDS011;65132;52.088;5.402;2022-12-31T08:16:06;3.20;;;1.45;;
76320;SDS011;65132;52.088;5.402;2022-12-31T08:18:36;3.25;;;1.80;;
76320;SDS011;65132;52.088;5.402;2022-12-31T08:24:10;2.25;;;1.00;;
76320;SDS011;65132;52.088;5.402;2022-12-31T08:26:50;2.55;;;1.13;;
76320;SDS011;65132;52.088;5.402;2022-12-31T08:29:35;1.60;;;0.70;;
76320;SDS011;65132;52.088;5.402;2022-12-31T08:32:11;2.25;;;0.95;;
76320;SDS011;65132;52.088;5.402;2022-12-31T08:34:53;2.72;;;0.75;;
76320;SDS011;65132;52.088;5.402;2022-12-31T08:37:26;3.33;;;0.80;;
76320;SDS011;65132;52.088;5.402;2022-12-31T08:46:06;3.00;;;0.52;;
76320;SDS011;65132;52.088;5.402;2022-12-31T08:48:44;1.40;;;0.60;;
76320;SDS011;65132;52.088;5.402;2022-12-31T08:51:18;1.55;;;0.45;;
76320;SDS011;65132;52.088;5.402;2022-12-31T08:53:47;1.33;;;0.28;;
76320;SDS011;65132;52.088;5.402;2022-12-31T08:59:06;0.90;;;0.13;;
76320;SDS011;65132;52.088;5.402;2022-12-31T09:01:42;3.30;;;0.57;;
76320;SDS011;65132;52.088;5.402;2022-12-31T09:07:09;2.38;;;0.50;;
76320;SDS011;65132;52.088;5.402;2022-12-31T09:09:43;1.50;;;0.35;;
76320;SDS011;65132;52.088;5.402;2022-12-31T09:12:29;1.33;;;0.50;;
76320;SDS011;65132;52.088;5.402;2022-12-31T09:15:09;2.22;;;1.02;;
76320;SDS011;65132;52.088;5.402;2022-12-31T09:17:44;3.85;;;0.63;;
76320;SDS011;65132;52.088;5.402;2022-12-31T09:20:13;1.40;;;0.50;;
76320;SDS011;65132;52.088;5.402;2022-12-31T09:22:43;2.83;;;0.93;;
76320;SDS011;65132;52.088;5.402;2022-12-31T09:25:13;3.20;;;1.17;;
76320;SDS011;65132;52.088;5.402;2022-12-31T09:36:06;2.50;;;0.82;;
76320;SDS011;65132;52.088;5.402;2022-12-31T09:46:58;3.33;;;1.00;;
76320;SDS011;65132;52.088;5.402;2022-12-31T09:49:38;3.80;;;0.90;;
76320;SDS011;65132;52.088;5.402;2022-12-31T09:52:19;2.78;;;0.93;;
76320;SDS011;65132;52.088;5.402;2022-12-31T10:00:16;3.95;;;0.63;;
76320;SDS011;65132;52.088;5.402;2022-12-31T10:11:28;2.45;;;1.00;;
76320;SDS011;65132;52.088;5.402;2022-12-31T10:21:47;2.15;;;0.70;;
76320;SDS011;65132;52.088;5.402;2022-12-31T10:49:28;2.55;;;0.73;;
76320;SDS011;65132;52.088;5.402;2022-12-31T11:01:19;4.30;;;1.08;;
76320;SDS011;65132;52.088;5.402;2022-12-31T11:07:08;3.83;;;0.82;;
76320;SDS011;65132;52.088;5.402;2022-12-31T11:18:04;3.53;;;0.90;;
76320;SDS011;65132;52.088;5.402;2022-12-31T11:23:42;3.97;;;1.00;;
76320;SDS011;65132;52.088;5.402;2022-12-31T11:29:08;3.22;;;0.77;;
76320;SDS011;65132;52.088;5.402;2022-12-31T11:31:49;3.90;;;1.30;;
76320;SDS011;65132;52.088;5.402;2022-12-31T11:42:56;5.80;;;1.42;;
76320;SDS011;65132;52.088;5.402;2022-12-31T11:53:35;3.38;;;1.15;;
76320;SDS011;65132;52.088;5.402;2022-12-31T11:56:24;2.85;;;0.93;;
76320;SDS011;65132;52.088;5.402;2022-12-31T11:58:52;3.40;;;1.00;;
76320;SDS011;65132;52.088;5.402;2022-12-31T12:04:12;1.90;;;0.68;;
76320;SDS011;65132;52.088;5.402;2022-12-31T12:06:38;3.67;;;0.82;;
76320;SDS011;65132;52.088;5.402;2022-12-31T12:09:06;5.55;;;1.05;;
76320;SDS011;65132;52.088;5.402;2022-12-31T12:11:38;4.82;;;0.93;;
76320;SDS011;65132;52.088;5.402;2022-12-31T12:16:59;5.68;;;1.48;;
76320;SDS011;65132;52.088;5.402;2022-12-31T12:19:31;3.05;;;1.10;;
76320;SDS011;65132;52.088;5.402;2022-12-31T12:22:07;5.72;;;1.17;;
76320;SDS011;65132;52.088;5.402;2022-12-31T12:24:38;5.00;;;1.58;;
76320;SDS011;65132;52.088;5.402;2022-12-31T12:27:18;5.40;;;1.23;;
76320;SDS011;65132;52.088;5.402;2022-12-31T12:29:46;5.50;;;1.30;;
76320;SDS011;65132;52.088;5.402;2022-12-31T12:32:17;5.60;;;0.70;;
76320;SDS011;65132;52.088;5.402;2022-12-31T12:34:45;4.85;;;1.30;;
76320;SDS011;65132;52.088;5.402;2022-12-31T12:37:36;4.28;;;1.13;;
76320;SDS011;65132;52.088;5.402;2022-12-31T12:40:04;7.72;;;1.55;;
76320;SDS011;65132;52.088;5.402;2022-12-31T12:42:32;4.15;;;0.90;;
76320;SDS011;65132;52.088;5.402;2022-12-31T12:45:21;4.50;;;1.20;;
76320;SDS011;65132;52.088;5.402;2022-12-31T12:47:48;2.38;;;0.77;;
76320;SDS011;65132;52.088;5.402;2022-12-31T12:50:21;4.82;;;1.17;;
76320;SDS011;65132;52.088;5.402;2022-12-31T12:52:59;4.95;;;1.10;;
76320;SDS011;65132;52.088;5.402;2022-12-31T12:55:34;3.67;;;1.13;;
76320;SDS011;65132;52.088;5.402;2022-12-31T12:58:36;2.67;;;1.30;;
76320;SDS011;65132;52.088;5.402;2022-12-31T13:01:24;5.38;;;1.00;;
76320;SDS011;65132;52.088;5.402;2022-12-31T13:09:58;6.93;;;2.78;;
76320;SDS011;65132;52.088;5.402;2022-12-31T13:15:33;5.97;;;1.70;;
76320;SDS011;65132;52.088;5.402;2022-12-31T13:18:11;4.95;;;1.90;;
76320;SDS011;65132;52.088;5.402;2022-12-31T13:20:58;4.57;;;1.88;;
76320;SDS011;65132;52.088;5.402;2022-12-31T13:23:42;5.00;;;1.10;;
76320;SDS011;65132;52.088;5.402;2022-12-31T13:29:01;4.47;;;1.00;;
76320;SDS011;65132;52.088;5.402;2022-12-31T13:31:30;4.47;;;1.20;;
76320;SDS011;65132;52.088;5.402;2022-12-31T13:34:03;6.05;;;1.20;;
76320;SDS011;65132;52.088;5.402;2022-12-31T13:36:38;5.55;;;1.25;;
76320;SDS011;65132;52.088;5.402;2022-12-31T13:39:11;2.63;;;0.82;;
76320;SDS011;65132;52.088;5.402;2022-12-31T13:47:05;5.53;;;1.30;;
76320;SDS011;65132;52.088;5.402;2022-12-31T13:49:42;5.65;;;1.08;;
76320;SDS011;65132;52.088;5.402;2022-12-31T13:57:43;6.35;;;1.90;;
76320;SDS011;65132;52.088;5.402;2022-12-31T14:00:16;5.60;;;1.35;;
76320;SDS011;65132;52.088;5.402;2022-12-31T14:05:36;8.32;;;2.85;;
76320;SDS011;65132;52.088;5.402;2022-12-31T14:08:09;7.15;;;3.15;;
76320;SDS011;65132;52.088;5.402;2022-12-31T14:10:40;4.88;;;1.92;;
76320;SDS011;65132;52.088;5.402;2022-12-31T14:19:09;3.35;;;1.20;;
76320;SDS011;65132;52.088;5.402;2022-12-31T14:21:43;4.97;;;1.33;;
76320;SDS011;65132;52.088;5.402;2022-12-31T14:26:55;7.10;;;2.83;;
76320;SDS011;65132;52.088;5.402;2022-12-31T14:29:30;4.15;;;1.25;;
76320;SDS011;65132;52.088;5.402;2022-12-31T14:34:44;5.72;;;1.38;;
76320;SDS011;65132;52.088;5.402;2022-12-31T14:45:45;3.63;;;0.73;;
76320;SDS011;65132;52.088;5.402;2022-12-31T14:50:53;3.38;;;0.98;;
76320;SDS011;65132;52.088;5.402;2022-12-31T14:53:25;9.85;;;1.67;;
76320;SDS011;65132;52.088;5.402;2022-12-31T14:56:03;4.45;;;1.15;;
76320;SDS011;65132;52.088;5.402;2022-12-31T14:58:33;7.20;;;1.77;;
76320;SDS011;65132;52.088;5.402;2022-12-31T15:01:05;4.80;;;1.50;;
76320;SDS011;65132;52.088;5.402;2022-12-31T15:03:44;4.18;;;1.13;;
76320;SDS011;65132;52.088;5.402;2022-12-31T15:22:48;14.20;;;4.50;;
76320;SDS011;65132;52.088;5.402;2022-12-31T15:25:51;10.90;;;3.65;;
76320;SDS011;65132;52.088;5.402;2022-12-31T15:28:29;10.50;;;3.10;;
76320;SDS011;65132;52.088;5.402;2022-12-31T15:31:17;7.30;;;2.33;;
76320;SDS011;65132;52.088;5.402;2022-12-31T15:36:32;7.90;;;3.47;;
76320;SDS011;65132;52.088;5.402;2022-12-31T15:41:42;5.15;;;1.75;;
76320;SDS011;65132;52.088;5.402;2022-12-31T15:44:49;5.55;;;1.63;;
76320;SDS011;65132;52.088;5.402;2022-12-31T15:47:26;7.05;;;2.10;;
76320;SDS011;65132;52.088;5.402;2022-12-31T15:49:58;6.05;;;2.05;;
76320;SDS011;65132;52.088;5.402;2022-12-31T15:57:48;9.55;;;2.80;;
76320;SDS011;65132;52.088;5.402;2022-12-31T16:00:17;13.38;;;4.95;;
76320;SDS011;65132;52.088;5.402;2022-12-31T16:05:23;6.72;;;2.53;;
76320;SDS011;65132;52.088;5.402;2022-12-31T16:07:54;12.10;;;2.80;;
76320;SDS011;65132;52.088;5.402;2022-12-31T16:10:27;6.57;;;1.77;;
76320;SDS011;65132;52.088;5.402;2022-12-31T16:12:56;7.15;;;2.10;;
76320;SDS011;65132;52.088;5.402;2022-12-31T16:15:25;5.43;;;1.80;;
76320;SDS011;65132;52.088;5.402;2022-12-31T16:17:57;8.65;;;2.72;;
76320;SDS011;65132;52.088;5.402;2022-12-31T16:20:31;11.45;;;2.60;;
76320;SDS011;65132;52.088;5.402;2022-12-31T16:22:59;8.13;;;2.63;;
76320;SDS011;65132;52.088;5.402;2022-12-31T16:25:28;9.80;;;2.25;;
76320;SDS011;65132;52.088;5.402;2022-12-31T16:27:58;10.30;;;2.63;;
76320;SDS011;65132;52.088;5.402;2022-12-31T16:30:28;5.82;;;2.17;;
76320;SDS011;65132;52.088;5.402;2022-12-31T16:32:58;6.30;;;2.70;;
76320;SDS011;65132;52.088;5.402;2022-12-31T16:35:32;6.53;;;1.63;;
76320;SDS011;65132;52.088;5.402;2022-12-31T16:38:15;7.05;;;2.10;;
76320;SDS011;65132;52.088;5.402;2022-12-31T16:43:35;10.18;;;5.47;;
76320;SDS011;65132;52.088;5.402;2022-12-31T16:46:09;6.88;;;1.52;;
76320;SDS011;65132;52.088;5.402;2022-12-31T16:48:44;5.40;;;1.50;;
76320;SDS011;65132;52.088;5.402;2022-12-31T16:51:14;7.00;;;1.67;;
76320;SDS011;65132;52.088;5.402;2022-12-31T16:53:45;6.05;;;1.88;;
76320;SDS011;65132;52.088;5.402;2022-12-31T16:56:18;9.48;;;2.30;;
76320;SDS011;65132;52.088;5.402;2022-12-31T16:58:56;7.88;;;2.50;;
76320;SDS011;65132;52.088;5.402;2022-12-31T17:01:29;6.35;;;1.83;;
76320;SDS011;65132;52.088;5.402;2022-12-31T17:03:59;7.60;;;2.40;;
76320;SDS011;65132;52.088;5.402;2022-12-31T17:11:30;8.27;;;3.40;;
76320;SDS011;65132;52.088;5.402;2022-12-31T17:16:37;8.18;;;2.80;;
76320;SDS011;65132;52.088;5.402;2022-12-31T17:19:42;7.03;;;2.25;;
76320;SDS011;65132;52.088;5.402;2022-12-31T17:22:15;9.80;;;3.20;;
76320;SDS011;65132;52.088;5.402;2022-12-31T17:25:03;7.45;;;2.47;;
76320;SDS011;65132;52.088;5.402;2022-12-31T17:35:34;5.80;;;1.75;;
76320;SDS011;65132;52.088;5.402;2022-12-31T17:40:49;8.85;;;2.25;;
76320;SDS011;65132;52.088;5.402;2022-12-31T17:43:18;7.45;;;2.55;;
76320;SDS011;65132;52.088;5.402;2022-12-31T17:45:49;7.63;;;2.10;;
76320;SDS011;65132;52.088;5.402;2022-12-31T17:48:16;7.03;;;2.20;;
76320;SDS011;65132;52.088;5.402;2022-12-31T17:50:48;9.15;;;3.05;;
76320;SDS011;65132;52.088;5.402;2022-12-31T17:53:17;6.43;;;2.85;;
76320;SDS011;65132;52.088;5.402;2022-12-31T17:55:44;5.75;;;1.90;;
76320;SDS011;65132;52.088;5.402;2022-12-31T17:58:20;5.60;;;2.45;;
76320;SDS011;65132;52.088;5.402;2022-12-31T18:00:55;9.77;;;5.13;;
76320;SDS011;65132;52.088;5.402;2022-12-31T18:03:22;6.03;;;2.40;;
76320;SDS011;65132;52.088;5.402;2022-12-31T18:05:49;8.73;;;4.28;;
76320;SDS011;65132;52.088;5.402;2022-12-31T18:08:15;7.30;;;2.50;;
76320;SDS011;65132;52.088;5.402;2022-12-31T18:10:41;8.30;;;2.00;;
76320;SDS011;65132;52.088;5.402;2022-12-31T18:13:12;9.15;;;2.40;;
76320;SDS011;65132;52.088;5.402;2022-12-31T18:15:40;9.75;;;2.20;;
76320;SDS011;65132;52.088;5.402;2022-12-31T18:18:15;6.50;;;2.55;;
76320;SDS011;65132;52.088;5.402;2022-12-31T18:20:51;9.25;;;2.67;;
76320;SDS011;65132;52.088;5.402;2022-12-31T18:23:29;4.22;;;1.70;;
76320;SDS011;65132;52.088;5.402;2022-12-31T18:26:00;4.70;;;1.67;;
76320;SDS011;65132;52.088;5.402;2022-12-31T18:28:28;6.32;;;2.78;;
76320;SDS011;65132;52.088;5.402;2022-12-31T18:30:54;7.65;;;2.17;;
76320;SDS011;65132;52.088;5.402;2022-12-31T18:33:21;6.13;;;2.38;;
76320;SDS011;65132;52.088;5.402;2022-12-31T18:35:48;9.27;;;2.30;;
76320;SDS011;65132;52.088;5.402;2022-12-31T18:38:34;7.70;;;2.88;;
76320;SDS011;65132;52.088;5.402;2022-12-31T18:41:00;5.18;;;2.30;;
76320;SDS011;65132;52.088;5.402;2022-12-31T18:43:27;6.57;;;1.80;;
76320;SDS011;65132;52.088;5.402;2022-12-31T18:45:53;4.70;;;1.65;;
76320;SDS011;65132;52.088;5.402;2022-12-31T18:48:20;7.60;;;2.47;;
76320;SDS011;65132;52.088;5.402;2022-12-31T18:50:46;6.78;;;2.25;;
76320;SDS011;65132;52.088;5.402;2022-12-31T18:53:18;5.78;;;2.00;;
76320;SDS011;65132;52.088;5.402;2022-12-31T18:58:17;9.88;;;2.50;;
76320;SDS011;65132;52.088;5.402;2022-12-31T19:00:47;6.75;;;2.22;;
76320;SDS011;65132;52.088;5.402;2022-12-31T19:03:16;6.80;;;2.08;;
76320;SDS011;65132;52.088;5.402;2022-12-31T19:05:44;6.25;;;2.05;;
76320;SDS011;65132;52.088;5.402;2022-12-31T19:08:10;7.07;;;2.88;;
76320;SDS011;65132;52.088;5.402;2022-12-31T19:10:37;7.90;;;2.22;;
76320;SDS011;65132;52.088;5.402;2022-12-31T19:13:03;8.77;;;3.28;;
76320;SDS011;65132;52.088;5.402;2022-12-31T19:17:59;10.00;;;1.95;;
76320;SDS011;65132;52.088;5.402;2022-12-31T19:20:27;4.75;;;1.73;;
76320;SDS011;65132;52.088;5.402;2022-12-31T19:22:54;5.03;;;1.67;;
76320;SDS011;65132;52.088;5.402;2022-12-31T19:25:25;5.43;;;1.90;;
76320;SDS011;65132;52.088;5.402;2022-12-31T19:28:00;6.38;;;2.28;;
76320;SDS011;65132;52.088;5.402;2022-12-31T19:30:29;5.53;;;1.80;;
76320;SDS011;65132;52.088;5.402;2022-12-31T19:32:57;7.10;;;2.17;;
76320;SDS011;65132;52.088;5.402;2022-12-31T19:35:24;9.48;;;2.65;;
76320;SDS011;65132;52.088;5.402;2022-12-31T19:37:52;8.75;;;2.80;;
76320;SDS011;65132;52.088;5.402;2022-12-31T19:40:21;7.65;;;2.13;;
76320;SDS011;65132;52.088;5.402;2022-12-31T19:42:52;8.45;;;2.42;;
76320;SDS011;65132;52.088;5.402;2022-12-31T19:45:24;9.70;;;1.98;;
76320;SDS011;65132;52.088;5.402;2022-12-31T19:47:52;6.75;;;2.45;;
76320;SDS011;65132;52.088;5.402;2022-12-31T19:50:22;9.30;;;2.85;;
76320;SDS011;65132;52.088;5.402;2022-12-31T19:52:51;5.82;;;2.20;;
76320;SDS011;65132;52.088;5.402;2022-12-31T19:55:20;8.25;;;2.25;;